sensor_id;sensor_type;location;lat;lon;timestamp;pressure;altitude;pressure_sealevel;temperature;humidity
79540;BME280;68991;52.122;5.406;2023-09-19T00:00:43;100828.19;;;22.06;69.24
79540;BME280;68991;52.122;5.406;2023-09-19T00:03:10;100829.19;;;22.05;69.45
79540;BME280;68991;52.122;5.406;2023-09-19T00:05:39;100835.66;;;22.04;69.80
79540;BME280;68991;52.122;5.406;2023-09-19T00:08:06;100834.84;;;22.03;69.43
79540;BME280;68991;52.122;5.406;2023-09-19T00:10:34;100841.31;;;22.02;69.42
79540;BME280;68991;52.122;5.406;2023-09-19T00:13:06;100846.94;;;22.01;69.53
79540;BME280;68991;52.122;5.406;2023-09-19T00:15:40;100848.81;;;22.00;69.31
79540;BME280;68991;52.122;5.406;2023-09-19T00:18:08;100854.28;;;22.00;69.36
79540;BME280;68991;52.122;5.406;2023-09-19T00:20:38;100856.31;;;21.98;69.35
79540;BME280;68991;52.122;5.406;2023-09-19T00:23:05;100853.56;;;21.98;69.49
79540;BME280;68991;52.122;5.406;2023-09-19T00:25:36;100845.50;;;21.97;69.52
79540;BME280;68991;52.122;5.406;2023-09-19T00:28:04;100850.13;;;21.96;69.19
79540;BME280;68991;52.122;5.406;2023-09-19T00:30:31;100848.41;;;21.95;69.57
79540;BME280;68991;52.122;5.406;2023-09-19T00:32:59;100854.88;;;21.94;69.15
79540;BME280;68991;52.122;5.406;2023-09-19T00:35:27;100858.63;;;21.93;69.21
79540;BME280;68991;52.122;5.406;2023-09-19T00:37:56;100859.66;;;21.92;69.68
79540;BME280;68991;52.122;5.406;2023-09-19T00:40:22;100861.53;;;21.92;69.72
79540;BME280;68991;52.122;5.406;2023-09-19T00:42:50;100856.19;;;21.90;69.20
79540;BME280;68991;52.122;5.406;2023-09-19T00:45:17;100862.53;;;21.91;69.49
79540;BME280;68991;52.122;5.406;2023-09-19T00:47:46;100865.41;;;21.89;69.82
79540;BME280;68991;52.122;5.406;2023-09-19T00:50:21;100856.19;;;21.90;69.37
79540;BME280;68991;52.122;5.406;2023-09-19T00:52:50;100869.13;;;21.88;69.22
79540;BME280;68991;52.122;5.406;2023-09-19T00:55:19;100868.28;;;21.88;69.71
79540;BME280;68991;52.122;5.406;2023-09-19T00:57:47;100863.81;;;21.87;69.46
79540;BME280;68991;52.122;5.406;2023-09-19T01:00:16;100873.88;;;21.86;69.15
79540;BME280;68991;52.122;5.406;2023-09-19T01:02:47;100880.22;;;21.87;69.83
79540;BME280;68991;52.122;5.406;2023-09-19T01:05:14;100876.78;;;21.84;69.27
79540;BME280;68991;52.122;5.406;2023-09-19T01:07:41;100878.66;;;21.84;69.34
79540;BME280;68991;52.122;5.406;2023-09-19T01:10:11;100877.78;;;21.83;69.27
79540;BME280;68991;52.122;5.406;2023-09-19T01:26:35;100876.53;;;21.78;69.23
79540;BME280;68991;52.122;5.406;2023-09-19T01:31:34;100886.59;;;21.77;69.17
79540;BME280;68991;52.122;5.406;2023-09-19T01:34:03;100883.88;;;21.77;69.23
79540;BME280;68991;52.122;5.406;2023-09-19T01:36:33;100882.13;;;21.76;69.35
79540;BME280;68991;52.122;5.406;2023-09-19T01:39:11;100875.78;;;21.76;69.44
79540;BME280;68991;52.122;5.406;2023-09-19T01:44:24;100880.56;;;21.74;69.08
79540;BME280;68991;52.122;5.406;2023-09-19T01:46:55;100889.63;;;21.74;69.38
79540;BME280;68991;52.122;5.406;2023-09-19T01:49:42;100891.63;;;21.72;68.97
79540;BME280;68991;52.122;5.406;2023-09-19T01:52:13;100891.63;;;21.72;69.13
79540;BME280;68991;52.122;5.406;2023-09-19T01:54:56;100892.66;;;21.71;69.26
79540;BME280;68991;52.122;5.406;2023-09-19T01:57:29;100895.41;;;21.71;69.38
79540;BME280;68991;52.122;5.406;2023-09-19T02:00:07;100890.94;;;21.70;69.07
79540;BME280;68991;52.122;5.406;2023-09-19T02:02:36;100896.41;;;21.70;69.10
79540;BME280;68991;52.122;5.406;2023-09-19T02:05:04;100898.28;;;21.70;69.21
79540;BME280;68991;52.122;5.406;2023-09-19T02:07:31;100891.94;;;21.69;68.76
79540;BME280;68991;52.122;5.406;2023-09-19T02:10:05;100903.88;;;21.68;69.33
79540;BME280;68991;52.122;5.406;2023-09-19T02:12:32;100887.63;;;21.67;68.88
79540;BME280;68991;52.122;5.406;2023-09-19T02:14:59;100893.97;;;21.67;69.43
79540;BME280;68991;52.122;5.406;2023-09-19T02:17:25;100895.84;;;21.67;69.02
79540;BME280;68991;52.122;5.406;2023-09-19T02:19:53;100885.03;;;21.65;68.82
79540;BME280;68991;52.122;5.406;2023-09-19T02:22:21;100892.38;;;21.65;69.21
79540;BME280;68991;52.122;5.406;2023-09-19T02:24:49;100891.53;;;21.64;69.25
79540;BME280;68991;52.122;5.406;2023-09-19T02:27:15;100895.97;;;21.65;68.83
79540;BME280;68991;52.122;5.406;2023-09-19T02:29:42;100900.75;;;21.63;68.80
79540;BME280;68991;52.122;5.406;2023-09-19T02:32:09;100895.25;;;21.63;69.23
79540;BME280;68991;52.122;5.406;2023-09-19T02:34:38;100901.75;;;21.62;69.33
79540;BME280;68991;52.122;5.406;2023-09-19T02:37:05;100899.00;;;21.62;68.97
79540;BME280;68991;52.122;5.406;2023-09-19T02:39:32;100900.88;;;21.62;68.64
79540;BME280;68991;52.122;5.406;2023-09-19T02:41:58;100906.50;;;21.60;69.06
79540;BME280;68991;52.122;5.406;2023-09-19T02:44:25;100904.63;;;21.61;68.83
79540;BME280;68991;52.122;5.406;2023-09-19T02:46:51;100904.78;;;21.59;68.48
79540;BME280;68991;52.122;5.406;2023-09-19T02:49:18;100905.63;;;21.60;68.59
79540;BME280;68991;52.122;5.406;2023-09-19T02:51:45;100909.38;;;21.59;68.60
79540;BME280;68991;52.122;5.406;2023-09-19T02:54:12;100898.59;;;21.57;68.95
79540;BME280;68991;52.122;5.406;2023-09-19T02:56:39;100907.63;;;21.58;68.65
79540;BME280;68991;52.122;5.406;2023-09-19T02:59:05;100900.59;;;21.55;68.52
79540;BME280;68991;52.122;5.406;2023-09-19T03:01:32;100910.53;;;21.56;68.67
79540;BME280;68991;52.122;5.406;2023-09-19T03:03:59;100910.53;;;21.56;68.68
79540;BME280;68991;52.122;5.406;2023-09-19T03:06:25;100907.06;;;21.54;68.44
79540;BME280;68991;52.122;5.406;2023-09-19T03:08:51;100909.97;;;21.53;68.83
79540;BME280;68991;52.122;5.406;2023-09-19T03:11:18;100900.88;;;21.52;68.32
79540;BME280;68991;52.122;5.406;2023-09-19T03:13:53;100894.72;;;21.50;68.73
79540;BME280;68991;52.122;5.406;2023-09-19T03:16:20;100901.88;;;21.51;68.18
79540;BME280;68991;52.122;5.406;2023-09-19T03:18:49;100901.88;;;21.51;68.03
79540;BME280;68991;52.122;5.406;2023-09-19T03:21:16;100899.31;;;21.50;68.14
79540;BME280;68991;52.122;5.406;2023-09-19T03:23:43;100904.91;;;21.48;68.20
79540;BME280;68991;52.122;5.406;2023-09-19T03:26:12;100895.84;;;21.48;68.34
79540;BME280;68991;52.122;5.406;2023-09-19T03:28:39;100892.25;;;21.47;68.49
79540;BME280;68991;52.122;5.406;2023-09-19T03:31:06;100898.75;;;21.46;68.21
79540;BME280;68991;52.122;5.406;2023-09-19T03:33:33;100905.22;;;21.45;67.94
79540;BME280;68991;52.122;5.406;2023-09-19T03:36:01;100904.34;;;21.45;68.02
79540;BME280;68991;52.122;5.406;2023-09-19T03:38:31;100914.41;;;21.44;68.42
79540;BME280;68991;52.122;5.406;2023-09-19T03:40:58;100907.25;;;21.43;67.90
79540;BME280;68991;52.122;5.406;2023-09-19T03:43:25;100899.03;;;21.43;68.67
79540;BME280;68991;52.122;5.406;2023-09-19T03:45:53;100892.69;;;21.43;67.65
79540;BME280;68991;52.122;5.406;2023-09-19T03:48:21;100886.19;;;21.44;68.24
79540;BME280;68991;52.122;5.406;2023-09-19T03:50:48;100888.81;;;21.45;68.43
79540;BME280;68991;52.122;5.406;2023-09-19T03:53:14;100896.88;;;21.47;68.34
79540;BME280;68991;52.122;5.406;2023-09-19T03:55:41;100897.72;;;21.47;68.02
79540;BME280;68991;52.122;5.406;2023-09-19T03:58:08;100893.97;;;21.48;68.01
79540;BME280;68991;52.122;5.406;2023-09-19T04:00:34;100901.19;;;21.49;67.61
79540;BME280;68991;52.122;5.406;2023-09-19T04:03:04;100907.38;;;21.51;67.81
79540;BME280;68991;52.122;5.406;2023-09-19T04:05:33;100911.84;;;21.52;67.82
79540;BME280;68991;52.122;5.406;2023-09-19T04:08:00;100917.31;;;21.52;68.35
79540;BME280;68991;52.122;5.406;2023-09-19T04:10:26;100921.03;;;21.51;68.83
79540;BME280;68991;52.122;5.406;2023-09-19T04:12:54;100922.78;;;21.52;68.58
79540;BME280;68991;52.122;5.406;2023-09-19T04:15:21;100930.13;;;21.52;68.48
79540;BME280;68991;52.122;5.406;2023-09-19T04:17:50;100928.38;;;21.51;68.34
79540;BME280;68991;52.122;5.406;2023-09-19T04:20:20;100934.00;;;21.49;68.06
79540;BME280;68991;52.122;5.406;2023-09-19T04:22:48;100934.88;;;21.50;68.24
79540;BME280;68991;52.122;5.406;2023-09-19T04:25:15;100939.63;;;21.48;68.52
79540;BME280;68991;52.122;5.406;2023-09-19T04:27:42;100945.09;;;21.48;68.31
79540;BME280;68991;52.122;5.406;2023-09-19T04:30:08;100949.69;;;21.47;68.63
79540;BME280;68991;52.122;5.406;2023-09-19T04:32:38;100956.19;;;21.46;68.39
79540;BME280;68991;52.122;5.406;2023-09-19T04:35:09;100954.31;;;21.47;68.40
79540;BME280;68991;52.122;5.406;2023-09-19T04:37:38;100956.19;;;21.46;67.98
79540;BME280;68991;52.122;5.406;2023-09-19T04:40:09;100961.66;;;21.46;67.77
79540;BME280;68991;52.122;5.406;2023-09-19T04:42:40;100973.59;;;21.45;68.05
79540;BME280;68991;52.122;5.406;2023-09-19T04:45:07;100981.81;;;21.45;68.13
79540;BME280;68991;52.122;5.406;2023-09-19T04:47:39;100971.88;;;21.44;67.88
79540;BME280;68991;52.122;5.406;2023-09-19T04:50:07;100978.38;;;21.43;68.24
79540;BME280;68991;52.122;5.406;2023-09-19T04:52:34;100970.16;;;21.43;68.17
79540;BME280;68991;52.122;5.406;2023-09-19T04:55:01;100967.44;;;21.43;67.92
79540;BME280;68991;52.122;5.406;2023-09-19T04:57:28;100962.94;;;21.42;67.52
79540;BME280;68991;52.122;5.406;2023-09-19T04:59:54;100960.22;;;21.42;67.92
79540;BME280;68991;52.122;5.406;2023-09-19T05:02:21;100954.75;;;21.42;68.12
79540;BME280;68991;52.122;5.406;2023-09-19T05:04:47;100963.94;;;21.41;67.29
79540;BME280;68991;52.122;5.406;2023-09-19T05:07:14;100966.84;;;21.40;67.49
79540;BME280;68991;52.122;5.406;2023-09-19T05:09:41;100978.63;;;21.40;67.41
79540;BME280;68991;52.122;5.406;2023-09-19T05:12:08;100966.84;;;21.40;67.49
79540;BME280;68991;52.122;5.406;2023-09-19T05:14:37;100967.69;;;21.40;67.54
79540;BME280;68991;52.122;5.406;2023-09-19T05:17:03;100976.75;;;21.41;67.82
79540;BME280;68991;52.122;5.406;2023-09-19T05:19:30;100975.06;;;21.40;67.83
79540;BME280;68991;52.122;5.406;2023-09-19T05:21:57;100978.63;;;21.40;67.75
79540;BME280;68991;52.122;5.406;2023-09-19T05:24:23;100965.97;;;21.39;67.99
79540;BME280;68991;52.122;5.406;2023-09-19T05:26:52;100971.44;;;21.39;67.38
79540;BME280;68991;52.122;5.406;2023-09-19T05:29:19;100987.88;;;21.39;67.57
79540;BME280;68991;52.122;5.406;2023-09-19T05:31:45;100977.06;;;21.38;67.25
79540;BME280;68991;52.122;5.406;2023-09-19T05:34:12;100977.06;;;21.38;67.36
79540;BME280;68991;52.122;5.406;2023-09-19T05:36:38;100978.91;;;21.37;67.48
79540;BME280;68991;52.122;5.406;2023-09-19T05:39:06;100966.09;;;21.38;67.60
79540;BME280;68991;52.122;5.406;2023-09-19T05:41:35;100971.75;;;21.36;67.37
79540;BME280;68991;52.122;5.406;2023-09-19T05:44:06;100966.28;;;21.36;67.68
79540;BME280;68991;52.122;5.406;2023-09-19T05:46:33;100970.88;;;21.36;67.61
79540;BME280;68991;52.122;5.406;2023-09-19T05:49:00;100971.75;;;21.36;67.28
79540;BME280;68991;52.122;5.406;2023-09-19T05:51:26;100970.00;;;21.35;67.13
79540;BME280;68991;52.122;5.406;2023-09-19T05:53:54;100964.66;;;21.33;67.49
79540;BME280;68991;52.122;5.406;2023-09-19T05:56:21;100981.06;;;21.33;67.34
79540;BME280;68991;52.122;5.406;2023-09-19T05:58:48;100984.84;;;21.32;66.70
79540;BME280;68991;52.122;5.406;2023-09-19T06:01:16;100984.97;;;21.31;65.22
79540;BME280;68991;52.122;5.406;2023-09-19T06:03:42;100988.69;;;21.30;66.60
79540;BME280;68991;52.122;5.406;2023-09-19T06:06:09;100980.66;;;21.28;65.36
79540;BME280;68991;52.122;5.406;2023-09-19T06:08:35;100998.06;;;21.27;66.13
79540;BME280;68991;52.122;5.406;2023-09-19T06:11:02;100997.19;;;21.27;65.91
79540;BME280;68991;52.122;5.406;2023-09-19T06:13:29;101000.91;;;21.26;65.72
79540;BME280;68991;52.122;5.406;2023-09-19T06:15:55;101001.78;;;21.26;66.03
79540;BME280;68991;52.122;5.406;2023-09-19T06:18:24;101003.66;;;21.26;65.56
79540;BME280;68991;52.122;5.406;2023-09-19T06:20:52;101005.38;;;21.27;65.28
79540;BME280;68991;52.122;5.406;2023-09-19T06:23:20;101003.41;;;21.29;65.10
79540;BME280;68991;52.122;5.406;2023-09-19T06:25:46;101008.88;;;21.29;65.16
79540;BME280;68991;52.122;5.406;2023-09-19T06:28:13;101013.31;;;21.30;64.96
79540;BME280;68991;52.122;5.406;2023-09-19T06:30:41;101006.13;;;21.29;65.58
79540;BME280;68991;52.122;5.406;2023-09-19T06:33:08;101010.56;;;21.30;65.38
79540;BME280;68991;52.122;5.406;2023-09-19T06:35:35;101006.84;;;21.31;65.67
79540;BME280;68991;52.122;5.406;2023-09-19T06:38:04;101000.38;;;21.32;65.48
79540;BME280;68991;52.122;5.406;2023-09-19T06:40:33;100993.03;;;21.32;65.72
79540;BME280;68991;52.122;5.406;2023-09-19T06:43:00;100993.88;;;21.33;65.19
79540;BME280;68991;52.122;5.406;2023-09-19T06:45:28;100996.47;;;21.34;65.84
79540;BME280;68991;52.122;5.406;2023-09-19T06:47:54;100992.88;;;21.34;65.47
79540;BME280;68991;52.122;5.406;2023-09-19T06:50:25;100995.63;;;21.34;65.28
79540;BME280;68991;52.122;5.406;2023-09-19T06:52:53;100992.00;;;21.33;63.97
79540;BME280;68991;52.122;5.406;2023-09-19T06:55:22;100996.78;;;21.31;64.85
79540;BME280;68991;52.122;5.406;2023-09-19T06:57:51;100997.63;;;21.32;64.74
79540;BME280;68991;52.122;5.406;2023-09-19T07:00:20;101000.38;;;21.32;64.90
79540;BME280;68991;52.122;5.406;2023-09-19T07:03:00;101005.84;;;21.32;64.47
79540;BME280;68991;52.122;5.406;2023-09-19T07:05:31;101000.22;;;21.33;64.49
79540;BME280;68991;52.122;5.406;2023-09-19T07:07:59;100984.09;;;21.30;62.77
79540;BME280;68991;52.122;5.406;2023-09-19T07:10:26;101015.91;;;21.31;63.74
79540;BME280;68991;52.122;5.406;2023-09-19T07:13:08;100995.03;;;21.30;63.90
79540;BME280;68991;52.122;5.406;2023-09-19T07:15:38;100996.91;;;21.30;62.43
79540;BME280;68991;52.122;5.406;2023-09-19T07:18:08;101003.41;;;21.29;62.38
79540;BME280;68991;52.122;5.406;2023-09-19T07:20:37;101002.38;;;21.30;62.06
79540;BME280;68991;52.122;5.406;2023-09-19T07:23:04;101000.66;;;21.29;62.45
79540;BME280;68991;52.122;5.406;2023-09-19T07:25:31;101007.84;;;21.30;62.31
79540;BME280;68991;52.122;5.406;2023-09-19T07:27:58;101018.66;;;21.31;61.82
79540;BME280;68991;52.122;5.406;2023-09-19T07:30:27;101016.03;;;21.30;61.53
79540;BME280;68991;52.122;5.406;2023-09-19T07:32:54;101025.13;;;21.30;61.65
79540;BME280;68991;52.122;5.406;2023-09-19T07:35:21;101029.72;;;21.30;61.17
79540;BME280;68991;52.122;5.406;2023-09-19T07:37:49;101028.72;;;21.31;60.38
79540;BME280;68991;52.122;5.406;2023-09-19T07:40:17;101032.16;;;21.33;60.93
79540;BME280;68991;52.122;5.406;2023-09-19T07:42:44;101033.91;;;21.34;60.86
79540;BME280;68991;52.122;5.406;2023-09-19T07:45:13;101030.19;;;21.35;61.13
79540;BME280;68991;52.122;5.406;2023-09-19T07:47:47;101044.56;;;21.37;60.96
79540;BME280;68991;52.122;5.406;2023-09-19T07:50:15;101021.69;;;21.38;60.17
79540;BME280;68991;52.122;5.406;2023-09-19T07:52:43;101022.38;;;21.40;60.62
79540;BME280;68991;52.122;5.406;2023-09-19T07:55:09;101034.06;;;21.42;60.07
79540;BME280;68991;52.122;5.406;2023-09-19T07:57:37;101028.31;;;21.45;60.92
79540;BME280;68991;52.122;5.406;2023-09-19T08:00:04;101026.03;;;21.50;61.28
79540;BME280;68991;52.122;5.406;2023-09-19T08:02:37;101032.91;;;21.54;61.36
79540;BME280;68991;52.122;5.406;2023-09-19T08:05:10;101035.25;;;21.59;61.44
79540;BME280;68991;52.122;5.406;2023-09-19T08:07:39;101024.88;;;21.62;61.01
79540;BME280;68991;52.122;5.406;2023-09-19T08:10:06;101031.78;;;21.66;61.21
79540;BME280;68991;52.122;5.406;2023-09-19T08:12:40;101037.84;;;21.70;61.38
79540;BME280;68991;52.122;5.406;2023-09-19T08:15:16;101036.84;;;21.71;61.21
79540;BME280;68991;52.122;5.406;2023-09-19T08:17:43;101030.22;;;21.73;61.32
79540;BME280;68991;52.122;5.406;2023-09-19T08:20:10;101034.69;;;21.74;60.50
79540;BME280;68991;52.122;5.406;2023-09-19T08:22:50;101026.47;;;21.74;60.43
79540;BME280;68991;52.122;5.406;2023-09-19T08:25:19;101023.88;;;21.73;60.07
79540;BME280;68991;52.122;5.406;2023-09-19T08:27:46;101034.69;;;21.74;60.16
79540;BME280;68991;52.122;5.406;2023-09-19T08:30:17;101023.56;;;21.76;59.95
79540;BME280;68991;52.122;5.406;2023-09-19T08:32:44;101033.41;;;21.78;60.29
79540;BME280;68991;52.122;5.406;2023-09-19T08:35:12;101025.19;;;21.78;59.81
79540;BME280;68991;52.122;5.406;2023-09-19T08:37:39;101020.53;;;21.79;59.78
79540;BME280;68991;52.122;5.406;2023-09-19T08:40:06;101023.28;;;21.79;59.86
79540;BME280;68991;52.122;5.406;2023-09-19T08:45:15;101024.91;;;21.81;60.34
79540;BME280;68991;52.122;5.406;2023-09-19T08:48:16;101017.38;;;21.83;60.36
79540;BME280;68991;52.122;5.406;2023-09-19T08:50:52;101018.84;;;21.88;60.25
79540;BME280;68991;52.122;5.406;2023-09-19T08:53:36;101015.84;;;21.91;60.31
79540;BME280;68991;52.122;5.406;2023-09-19T08:56:10;101008.34;;;21.93;60.36
79540;BME280;68991;52.122;5.406;2023-09-19T08:58:43;101014.41;;;21.96;60.68
79540;BME280;68991;52.122;5.406;2023-09-19T09:01:11;101016.69;;;22.01;60.32
79540;BME280;68991;52.122;5.406;2023-09-19T09:03:42;101020.88;;;22.05;60.21
79540;BME280;68991;52.122;5.406;2023-09-19T09:06:15;101026.03;;;22.08;60.49
79540;BME280;68991;52.122;5.406;2023-09-19T09:08:44;101010.19;;;22.11;60.40
79540;BME280;68991;52.122;5.406;2023-09-19T09:11:11;101016.69;;;22.10;60.35
79540;BME280;68991;52.122;5.406;2023-09-19T09:13:41;101025.03;;;22.09;60.56
79540;BME280;68991;52.122;5.406;2023-09-19T09:16:08;101023.31;;;22.08;60.59
79540;BME280;68991;52.122;5.406;2023-09-19T09:18:36;101017.81;;;22.08;60.49
79540;BME280;68991;52.122;5.406;2023-09-19T09:21:03;101007.63;;;22.10;60.08
79540;BME280;68991;52.122;5.406;2023-09-19T09:23:32;101009.31;;;22.11;60.36
79540;BME280;68991;52.122;5.406;2023-09-19T09:26:00;101011.22;;;22.10;60.40
79540;BME280;68991;52.122;5.406;2023-09-19T09:28:30;101010.34;;;22.10;60.76
79540;BME280;68991;52.122;5.406;2023-09-19T09:30:57;101005.75;;;22.10;60.46
79540;BME280;68991;52.122;5.406;2023-09-19T09:33:35;101001.09;;;22.11;60.73
79540;BME280;68991;52.122;5.406;2023-09-19T09:36:03;101005.56;;;22.12;60.49
79540;BME280;68991;52.122;5.406;2023-09-19T09:38:43;101008.88;;;22.15;60.44
79540;BME280;68991;52.122;5.406;2023-09-19T09:41:10;100998.50;;;22.19;60.09
79540;BME280;68991;52.122;5.406;2023-09-19T09:43:42;101002.69;;;22.23;60.03
79540;BME280;68991;52.122;5.406;2023-09-19T09:46:19;100987.97;;;22.24;60.07
79540;BME280;68991;52.122;5.406;2023-09-19T09:48:46;100991.28;;;22.27;60.10
79540;BME280;68991;52.122;5.406;2023-09-19T09:51:30;100989.13;;;22.31;60.13
79540;BME280;68991;52.122;5.406;2023-09-19T09:54:10;100993.56;;;22.32;59.92
79540;BME280;68991;52.122;5.406;2023-09-19T09:56:58;100993.41;;;22.33;60.17
79540;BME280;68991;52.122;5.406;2023-09-19T10:02:13;101008.00;;;22.34;59.82
79540;BME280;68991;52.122;5.406;2023-09-19T10:04:40;100985.91;;;22.36;60.05
79540;BME280;68991;52.122;5.406;2023-09-19T10:07:29;100996.28;;;22.32;59.82
79540;BME280;68991;52.122;5.406;2023-09-19T10:10:03;100994.00;;;22.37;59.97
79540;BME280;68991;52.122;5.406;2023-09-19T10:12:44;100997.72;;;22.36;59.94
79540;BME280;68991;52.122;5.406;2023-09-19T10:15:16;100998.03;;;22.33;59.85
79540;BME280;68991;52.122;5.406;2023-09-19T10:17:44;101008.13;;;22.32;59.95
79540;BME280;68991;52.122;5.406;2023-09-19T10:20:14;100992.00;;;22.29;60.00
79540;BME280;68991;52.122;5.406;2023-09-19T10:23:09;101003.25;;;22.26;60.27
79540;BME280;68991;52.122;5.406;2023-09-19T10:25:40;100994.59;;;22.31;59.62
79540;BME280;68991;52.122;5.406;2023-09-19T10:28:09;100985.78;;;22.37;59.90
79540;BME280;68991;52.122;5.406;2023-09-19T10:30:45;100988.94;;;22.42;59.96
79540;BME280;68991;52.122;5.406;2023-09-19T10:33:15;100972.50;;;22.42;59.55
79540;BME280;68991;52.122;5.406;2023-09-19T10:35:49;100979.69;;;22.43;60.05
79540;BME280;68991;52.122;5.406;2023-09-19T10:38:19;100970.72;;;22.51;59.63
79540;BME280;68991;52.122;5.406;2023-09-19T10:40:52;100959.00;;;22.58;59.45
79540;BME280;68991;52.122;5.406;2023-09-19T10:43:20;100956.69;;;22.63;59.55
79540;BME280;68991;52.122;5.406;2023-09-19T10:45:50;100963.19;;;22.62;59.28
79540;BME280;68991;52.122;5.406;2023-09-19T10:48:19;100945.00;;;22.61;59.57
79540;BME280;68991;52.122;5.406;2023-09-19T10:50:53;100958.88;;;22.60;59.69
79540;BME280;68991;52.122;5.406;2023-09-19T10:53:27;100951.78;;;22.57;59.85
79540;BME280;68991;52.122;5.406;2023-09-19T10:55:59;100954.72;;;22.56;59.60
79540;BME280;68991;52.122;5.406;2023-09-19T10:58:31;100952.34;;;22.61;59.61
79540;BME280;68991;52.122;5.406;2023-09-19T11:01:04;100947.88;;;22.69;59.22
79540;BME280;68991;52.122;5.406;2023-09-19T11:03:42;100948.75;;;22.70;59.22
79540;BME280;68991;52.122;5.406;2023-09-19T11:06:14;100940.69;;;22.68;59.44
79540;BME280;68991;52.122;5.406;2023-09-19T11:14:29;100930.28;;;22.72;59.16
79540;BME280;68991;52.122;5.406;2023-09-19T11:30:50;100935.00;;;22.79;58.61
79540;BME280;68991;52.122;5.406;2023-09-19T11:36:10;100926.97;;;22.68;59.02
79540;BME280;68991;52.122;5.406;2023-09-19T11:46:27;100915.31;;;22.57;59.11
79540;BME280;68991;52.122;5.406;2023-09-19T11:49:07;100908.13;;;22.56;59.31
79540;BME280;68991;52.122;5.406;2023-09-19T11:51:42;100902.47;;;22.57;59.05
79540;BME280;68991;52.122;5.406;2023-09-19T11:54:14;100893.94;;;22.60;59.23
79540;BME280;68991;52.122;5.406;2023-09-19T11:56:54;100900.47;;;22.59;58.77
79540;BME280;68991;52.122;5.406;2023-09-19T11:59:25;100898.03;;;22.56;59.02
79540;BME280;68991;52.122;5.406;2023-09-19T12:01:57;100913.91;;;22.53;58.96
79540;BME280;68991;52.122;5.406;2023-09-19T12:04:41;100903.09;;;22.51;59.27
79540;BME280;68991;52.122;5.406;2023-09-19T12:07:12;100918.81;;;22.49;59.22
79540;BME280;68991;52.122;5.406;2023-09-19T12:12:11;100918.09;;;22.47;59.42
79540;BME280;68991;52.122;5.406;2023-09-19T12:14:47;100918.66;;;22.51;59.23
79540;BME280;68991;52.122;5.406;2023-09-19T12:17:14;100926.88;;;22.51;59.19
79540;BME280;68991;52.122;5.406;2023-09-19T12:19:52;100916.34;;;22.46;59.34
79540;BME280;68991;52.122;5.406;2023-09-19T12:22:20;100912.78;;;22.46;59.27
79540;BME280;68991;52.122;5.406;2023-09-19T12:24:49;100910.19;;;22.44;59.40
79540;BME280;68991;52.122;5.406;2023-09-19T12:27:17;100915.97;;;22.41;59.56
79540;BME280;68991;52.122;5.406;2023-09-19T12:29:47;100920.03;;;22.37;59.45
79540;BME280;68991;52.122;5.406;2023-09-19T12:32:15;100924.63;;;22.37;59.52
79540;BME280;68991;52.122;5.406;2023-09-19T12:34:51;100914.84;;;22.34;59.67
79540;BME280;68991;52.122;5.406;2023-09-19T12:37:20;100917.59;;;22.34;59.38
79540;BME280;68991;52.122;5.406;2023-09-19T12:40:05;100912.09;;;22.34;59.70
79540;BME280;68991;52.122;5.406;2023-09-19T12:42:41;100912.41;;;22.31;59.71
79540;BME280;68991;52.122;5.406;2023-09-19T12:45:09;100917.16;;;22.29;59.69
79540;BME280;68991;52.122;5.406;2023-09-19T12:47:35;100906.50;;;22.26;59.67
79540;BME280;68991;52.122;5.406;2023-09-19T12:50:06;100916.75;;;22.24;59.36
79540;BME280;68991;52.122;5.406;2023-09-19T12:53:02;100927.00;;;22.22;59.44
79540;BME280;68991;52.122;5.406;2023-09-19T12:55:30;100917.06;;;22.21;59.85
79540;BME280;68991;52.122;5.406;2023-09-19T12:58:11;100907.13;;;22.20;60.03
79540;BME280;68991;52.122;5.406;2023-09-19T13:00:40;100925.28;;;22.21;59.59
79540;BME280;68991;52.122;5.406;2023-09-19T13:03:28;100919.81;;;22.21;59.75
79540;BME280;68991;52.122;5.406;2023-09-19T13:05:59;100922.53;;;22.21;59.83
79540;BME280;68991;52.122;5.406;2023-09-19T13:08:33;100915.16;;;22.21;59.70
79540;BME280;68991;52.122;5.406;2023-09-19T13:13:27;100908.69;;;22.22;59.83
79540;BME280;68991;52.122;5.406;2023-09-19T13:15:55;100913.47;;;22.20;59.81
79540;BME280;68991;52.122;5.406;2023-09-19T13:18:24;100920.94;;;22.18;59.82
79540;BME280;68991;52.122;5.406;2023-09-19T13:21:09;100933.06;;;22.16;59.93
79540;BME280;68991;52.122;5.406;2023-09-19T13:23:38;100934.06;;;22.15;59.97
79540;BME280;68991;52.122;5.406;2023-09-19T13:26:06;100921.56;;;22.12;60.03
79540;BME280;68991;52.122;5.406;2023-09-19T13:28:33;100935.38;;;22.11;59.96
79540;BME280;68991;52.122;5.406;2023-09-19T13:31:00;100927.03;;;22.12;59.67
79540;BME280;68991;52.122;5.406;2023-09-19T13:33:27;100930.19;;;22.17;59.75
79540;BME280;68991;52.122;5.406;2023-09-19T13:35:56;100914.31;;;22.21;59.45
79540;BME280;68991;52.122;5.406;2023-09-19T13:38:23;100925.13;;;22.22;59.78
79540;BME280;68991;52.122;5.406;2023-09-19T13:40:50;100905.94;;;22.22;59.53
79540;BME280;68991;52.122;5.406;2023-09-19T13:43:19;100911.28;;;22.24;59.52
79540;BME280;68991;52.122;5.406;2023-09-19T13:45:48;100911.41;;;22.22;59.39
79540;BME280;68991;52.122;5.406;2023-09-19T13:48:15;100899.59;;;22.22;59.59
79540;BME280;68991;52.122;5.406;2023-09-19T13:50:42;100898.72;;;22.21;59.63
79540;BME280;68991;52.122;5.406;2023-09-19T13:53:09;100898.72;;;22.21;59.75
79540;BME280;68991;52.122;5.406;2023-09-19T13:55:35;100903.38;;;22.21;59.85
79540;BME280;68991;52.122;5.406;2023-09-19T13:58:04;100898.16;;;22.18;59.82
79540;BME280;68991;52.122;5.406;2023-09-19T14:00:32;100895.72;;;22.15;60.16
79540;BME280;68991;52.122;5.406;2023-09-19T14:03:03;100899.63;;;22.12;60.06